createdAt,value
2022-10-23T00:00:45.111Z,88.79
2022-10-23T00:05:59.896Z,88.72
2022-10-23T00:10:54.632Z,88.65
2022-10-23T00:15:49.368Z,88.55
2022-10-23T00:20:44.170Z,88.50
2022-10-23T00:25:39.177Z,88.42
2022-10-23T00:30:34.511Z,88.40
2022-10-23T00:35:29.913Z,88.46
2022-10-23T00:40:24.519Z,88.42
2022-10-23T00:45:26.340Z,88.43
2022-10-23T00:50:25.593Z,88.46
2022-10-23T00:55:24.498Z,88.52
2022-10-23T01:00:24.640Z,88.58
2022-10-23T01:05:23.674Z,88.62
2022-10-23T01:10:32.625Z,88.72
2022-10-23T01:15:37.638Z,88.82
2022-10-23T01:20:44.941Z,88.85
2022-10-23T01:26:01.067Z,88.83
2022-10-23T01:31:01.966Z,88.87
2022-10-23T01:36:08.175Z,88.90
2022-10-23T01:41:11.155Z,88.95
2022-10-23T01:46:12.109Z,89.00
2022-10-23T01:51:13.605Z,89.00
2022-10-23T01:56:15.667Z,89.00
2022-10-23T02:01:13.380Z,89.00
2022-10-23T02:06:14.648Z,89.00
2022-10-23T02:11:13.884Z,89.00
2022-10-23T02:16:20.197Z,88.96
2022-10-23T02:21:27.509Z,88.93
2022-10-23T02:26:29.838Z,88.92
2022-10-23T02:31:25.743Z,88.90
2022-10-23T02:36:22.140Z,88.90
2022-10-23T02:41:35.690Z,88.90
2022-10-23T02:46:41.929Z,88.83
2022-10-23T02:51:53.706Z,88.80
2022-10-23T02:57:02.919Z,88.80
2022-10-23T03:02:08.188Z,88.75
2022-10-23T03:07:05.258Z,88.75
2022-10-23T03:12:00.255Z,88.71
2022-10-23T03:16:54.935Z,88.70
2022-10-23T03:21:50.595Z,88.69
2022-10-23T03:26:46.034Z,88.63
2022-10-23T03:31:41.622Z,88.58
2022-10-23T03:36:36.919Z,88.61
2022-10-23T03:41:32.893Z,88.65
2022-10-23T03:46:31.016Z,88.69
2022-10-23T03:51:27.775Z,88.70
2022-10-23T03:56:22.764Z,88.70
2022-10-23T04:01:18.251Z,88.70
2022-10-23T04:06:13.462Z,88.70
2022-10-23T04:11:09.524Z,88.64
2022-10-23T04:16:12.546Z,88.60
2022-10-23T04:21:07.706Z,88.46
2022-10-23T04:26:02.311Z,88.36
2022-10-23T04:30:58.270Z,88.22
2022-10-23T04:35:53.706Z,88.14
2022-10-23T04:40:48.804Z,88.10
2022-10-23T04:45:50.273Z,87.94
2022-10-23T04:50:54.103Z,87.78
2022-10-23T04:56:03.707Z,87.74
2022-10-23T05:01:06.736Z,87.82
2022-10-23T05:06:03.136Z,87.94
2022-10-23T05:11:16.557Z,88.04
2022-10-23T05:16:32.859Z,88.01
2022-10-23T05:21:32.548Z,88.00
2022-10-23T05:26:28.570Z,88.03
2022-10-23T05:31:25.282Z,88.00
2022-10-23T05:36:25.554Z,88.01
2022-10-23T05:41:24.480Z,88.00
2022-10-23T05:46:21.190Z,87.91
2022-10-23T05:51:40.283Z,87.91
2022-10-23T05:57:10.512Z,87.90
2022-10-23T06:02:15.822Z,87.80
2022-10-23T06:07:25.433Z,87.79
2022-10-23T06:12:21.679Z,87.80
2022-10-23T06:17:18.246Z,87.73
2022-10-23T06:22:15.130Z,87.59
2022-10-23T06:27:19.944Z,87.54
2022-10-23T06:32:14.882Z,87.54
2022-10-23T06:37:14.078Z,87.61
2022-10-23T06:42:23.447Z,87.61
2022-10-23T06:47:24.686Z,87.64
2022-10-23T06:52:47.326Z,87.58
2022-10-23T06:57:45.209Z,87.53
2022-10-23T07:02:41.989Z,87.39
2022-10-23T07:07:37.282Z,87.22
2022-10-23T07:12:32.485Z,87.22
2022-10-23T07:18:13.688Z,87.14
2022-10-23T07:23:26.628Z,86.90
2022-10-23T07:28:22.655Z,86.70
2022-10-23T07:33:18.060Z,86.69
2022-10-23T07:38:23.129Z,86.70
2022-10-23T07:43:21.749Z,86.58
2022-10-23T07:48:20.377Z,86.46
2022-10-23T07:53:29.162Z,86.32
2022-10-23T07:58:29.781Z,86.31
2022-10-23T08:03:40.150Z,86.19
2022-10-23T08:08:35.363Z,86.04
2022-10-23T08:13:31.351Z,85.81
2022-10-23T08:18:31.698Z,85.55
2022-10-23T08:23:27.143Z,85.29
2022-10-23T08:28:22.378Z,85.12
2022-10-23T08:33:23.280Z,85.10
2022-10-23T08:38:18.778Z,85.04
2022-10-23T08:43:21.384Z,84.97
2022-10-23T08:48:37.915Z,84.76
2022-10-23T08:54:02.960Z,84.22
2022-10-23T08:59:08.237Z,84.01
2022-10-23T09:04:04.996Z,83.89
2022-10-23T09:09:20.417Z,83.75
2022-10-23T09:14:50.057Z,83.69
2022-10-23T09:19:47.549Z,83.72
2022-10-23T09:24:45.607Z,84.01
2022-10-23T09:29:50.431Z,83.94
2022-10-23T09:34:55.060Z,83.84
2022-10-23T09:40:02.810Z,84.00
2022-10-23T09:44:58.288Z,83.71
2022-10-23T09:49:56.704Z,83.39
2022-10-23T09:54:56.391Z,83.26
2022-10-23T09:59:55.068Z,82.90
2022-10-23T10:04:50.682Z,82.57
2022-10-23T10:09:45.831Z,82.42
2022-10-23T10:14:58.059Z,82.43
2022-10-23T10:20:23.576Z,82.06
2022-10-23T10:25:25.600Z,82.31
2022-10-23T10:30:24.413Z,82.41
2022-10-23T10:35:40.784Z,82.41
2022-10-23T10:40:41.736Z,82.43
2022-10-23T10:45:45.778Z,82.43
2022-10-23T10:50:48.242Z,82.46
2022-10-23T10:55:53.793Z,82.44
2022-10-23T11:00:55.972Z,82.39
2022-10-23T11:05:56.268Z,82.41
2022-10-23T11:10:57.106Z,82.35
2022-10-23T11:15:56.336Z,82.20
2022-10-23T11:21:07.847Z,81.98
2022-10-23T11:26:25.437Z,81.56
2022-10-23T11:31:34.489Z,81.11
2022-10-23T11:36:46.845Z,80.82
2022-10-23T11:41:53.683Z,80.75
2022-10-23T11:46:59.496Z,80.15
2022-10-23T11:52:04.474Z,80.33
2022-10-23T11:57:12.937Z,80.29
2022-10-23T12:02:31.393Z,79.78
2022-10-23T12:07:30.993Z,79.29
2022-10-23T12:12:40.327Z,78.57
2022-10-23T12:17:39.588Z,77.67
2022-10-23T12:22:58.532Z,77.33
2022-10-23T12:28:03.737Z,77.45
2022-10-23T12:33:29.507Z,77.69
2022-10-23T12:38:30.162Z,77.61
2022-10-23T12:43:32.272Z,77.93
2022-10-23T12:48:29.391Z,78.29
2022-10-23T12:53:24.586Z,78.55
2022-10-23T12:58:25.425Z,78.77
2022-10-23T13:03:25.010Z,79.13
2022-10-23T13:08:22.351Z,79.42
2022-10-23T13:13:36.444Z,79.72
2022-10-23T13:18:42.536Z,80.05
2022-10-23T13:23:41.414Z,80.07
2022-10-23T13:28:44.444Z,80.07
2022-10-23T13:33:42.895Z,80.22
2022-10-23T13:38:41.060Z,80.18
2022-10-23T13:43:37.724Z,80.11
2022-10-23T13:48:32.768Z,80.17
2022-10-23T13:53:27.617Z,80.35
2022-10-23T13:58:23.014Z,80.29
2022-10-23T14:03:19.800Z,80.35
2022-10-23T14:08:14.153Z,80.39
2022-10-23T14:13:08.873Z,80.44
2022-10-23T14:18:08.018Z,80.50
2022-10-23T14:23:03.556Z,80.54
2022-10-23T14:28:00.243Z,80.61
2022-10-23T14:32:55.645Z,80.72
2022-10-23T14:37:50.994Z,80.82
2022-10-23T14:42:46.279Z,80.95
2022-10-23T14:47:42.523Z,81.06
2022-10-23T14:52:37.914Z,81.18
2022-10-23T14:57:32.633Z,81.22
2022-10-23T15:02:28.019Z,81.31
2022-10-23T15:07:23.330Z,81.33
2022-10-23T15:12:19.132Z,81.42
2022-10-23T15:17:15.724Z,81.44
2022-10-23T15:22:11.433Z,81.40
2022-10-23T15:27:07.085Z,81.09
2022-10-23T15:32:05.417Z,80.82
2022-10-23T15:37:00.667Z,80.64
2022-10-23T15:41:57.718Z,80.43
2022-10-23T15:46:56.435Z,80.46
2022-10-23T15:51:52.059Z,80.54
2022-10-23T15:56:49.048Z,80.60
2022-10-23T16:01:44.824Z,80.64
2022-10-23T16:06:39.767Z,80.72
2022-10-23T16:11:39.234Z,80.80
2022-10-23T16:16:35.668Z,80.83
2022-10-23T16:21:35.880Z,80.89
2022-10-23T16:26:31.853Z,81.01
2022-10-23T16:31:28.079Z,81.13
2022-10-23T16:36:23.064Z,81.26
2022-10-23T16:41:50.254Z,81.48
2022-10-23T16:46:45.731Z,81.50
2022-10-23T16:51:41.111Z,81.59
2022-10-23T16:56:36.763Z,81.59
2022-10-23T17:01:33.805Z,81.61
2022-10-23T17:06:31.891Z,81.70
2022-10-23T17:11:29.094Z,81.74
2022-10-23T17:16:27.880Z,81.83
2022-10-23T17:21:24.696Z,81.92
2022-10-23T17:26:21.939Z,82.03
2022-10-23T17:31:21.329Z,82.14
2022-10-23T17:36:18.657Z,82.25
2022-10-23T17:41:17.335Z,82.36
2022-10-23T17:46:17.751Z,82.44
2022-10-23T17:51:15.949Z,82.50
2022-10-23T17:56:18.228Z,82.50
2022-10-23T18:01:17.043Z,82.50
2022-10-23T18:06:17.503Z,82.50
2022-10-23T18:11:19.182Z,82.50
2022-10-23T18:16:15.988Z,82.36
2022-10-23T18:21:11.967Z,82.30
2022-10-23T18:26:16.209Z,82.22
2022-10-23T18:31:12.961Z,82.18
2022-10-23T18:36:17.100Z,82.21
2022-10-23T18:41:14.485Z,82.36
2022-10-23T18:46:10.197Z,82.32
2022-10-23T18:51:05.259Z,82.28
2022-10-23T18:56:00.563Z,82.43
2022-10-23T19:00:55.213Z,82.51
2022-10-23T19:05:50.932Z,82.52
2022-10-23T19:10:47.441Z,82.56
2022-10-23T19:15:43.084Z,82.67
2022-10-23T19:20:38.964Z,82.74
2022-10-23T19:25:36.956Z,82.94
2022-10-23T19:30:32.464Z,82.96
2022-10-23T19:35:30.223Z,82.99
2022-10-23T19:40:25.361Z,83.09
2022-10-23T19:45:22.197Z,83.29
2022-10-23T19:50:17.572Z,83.45
2022-10-23T19:55:12.867Z,83.59
2022-10-23T20:00:12.890Z,83.74
2022-10-23T20:05:15.032Z,83.86
2022-10-23T20:10:12.081Z,83.88
2022-10-23T20:15:10.096Z,83.90
2022-10-23T20:20:06.912Z,83.85
2022-10-23T20:25:03.695Z,83.80
2022-10-23T20:29:58.868Z,83.73
2022-10-23T20:34:54.449Z,83.61
2022-10-23T20:39:50.273Z,83.61
2022-10-23T20:44:45.961Z,83.69
2022-10-23T20:49:41.730Z,83.70
2022-10-23T20:54:37.634Z,83.79
2022-10-23T20:59:35.263Z,83.80
2022-10-23T21:04:30.934Z,83.86
2022-10-23T21:09:30.256Z,83.95
2022-10-23T21:14:26.613Z,84.07
2022-10-23T21:19:22.169Z,84.14
2022-10-23T21:24:18.284Z,84.29
2022-10-23T21:29:19.376Z,84.44
2022-10-23T21:34:15.414Z,84.63
2022-10-23T21:39:11.399Z,84.74
2022-10-23T21:44:10.432Z,84.79
2022-10-23T21:49:05.507Z,84.88
2022-10-23T21:54:00.890Z,84.98
2022-10-23T21:58:56.889Z,85.04
2022-10-23T22:03:54.179Z,85.21
2022-10-23T22:08:50.449Z,85.36
2022-10-23T22:13:46.223Z,85.43
2022-10-23T22:18:42.399Z,85.54
2022-10-23T22:23:38.451Z,85.53
2022-10-23T22:28:33.106Z,85.55
2022-10-23T22:33:33.122Z,85.65
2022-10-23T22:38:27.901Z,85.70
2022-10-23T22:43:22.732Z,85.70
2022-10-23T22:48:17.793Z,85.74
2022-10-23T22:53:13.397Z,85.78
2022-10-23T22:58:09.072Z,85.80
2022-10-23T23:03:04.710Z,85.83
2022-10-23T23:07:59.721Z,85.87
2022-10-23T23:12:55.062Z,85.83
2022-10-23T23:17:50.365Z,85.96
2022-10-23T23:22:45.895Z,86.04
2022-10-23T23:27:41.770Z,86.11
2022-10-23T23:32:37.293Z,86.20
2022-10-23T23:37:33.506Z,86.24
2022-10-23T23:42:29.631Z,86.27
2022-10-23T23:52:24.920Z,86.30
2022-10-23T23:57:19.855Z,86.36
